KBNO

Details ICAO KBNO
Name Burns Muni
Region United States
Timezone America/Los_Angeles (UTC-7.0)
Plans Departing 5
Arriving 10
Stats Elevation 4,148 ft / 1,264 m (AMSL)
Location 43.592380° -118.954661°
Runways 2
Magnetic Variation 14.039° E
Sunrise 2018-05-27 12:21:46 UTC / 2018-05-27 05:21:46 Local
Sunset 2018-05-28 03:27:08 UTC / 2018-05-27 20:27:08 Local
Advertisement - Login to hide

Runways

ID Width Length Bearing (true) Bearing (mag) Surface Threshold Offset Overrun Length
03 60 ft / 18 m 4,595 ft / 1,401 m 47.88° 33.84° Concrete 600 ft / 183 m 0 ft / 0 m
12 75 ft / 23 m 5,095 ft / 1,553 m 134.60° 120.56° Asphalt 0 ft / 0 m 0 ft / 0 m
21 60 ft / 18 m 4,595 ft / 1,401 m 227.89° 213.85° Concrete 0 ft / 0 m 0 ft / 0 m
30 75 ft / 23 m 5,095 ft / 1,553 m 314.61° 300.57° Asphalt 0 ft / 0 m 0 ft / 0 m

Map

Weather


0- 5 10 15 20 25 30 35+ Temperature / ° C

Clouds and Precipitation
Forecast for 2018-05-27 12:00 UTC. Updated 38 minutes ago

Ground ~20,000 ft ~40,000 ft Winds

METAR

KBNO 270853Z AUTO 27012KT 10SM CLR 08/03 A3008 RMK AO2 SLP168 T00830033 50003 $

TAF

TAF KBNO 270520Z 2706/2806 29012KT P6SM SCT080 FM271800 29015G25KT P6SM SKC FM280300 30010KT P6SM SKC

Frequencies

Recorded 135.57 MHz ASOS
Unicom 122.80 MHz CTAF/UNICOM
Warning: Do not use this data for real-world aviation or navigation. No guarantee of current accuracy is given.